createdAt,value
2023-04-13T00:00:38.066Z,79.67
2023-04-13T00:03:05.748Z,79.48
2023-04-13T00:05:34.632Z,79.76
2023-04-13T00:08:02.997Z,79.46
2023-04-13T00:10:37.014Z,79.15
2023-04-13T00:13:05.320Z,79.45
2023-04-13T00:15:35.036Z,79.11
2023-04-13T00:18:01.844Z,79.22
2023-04-13T00:20:29.154Z,79.14
2023-04-13T00:22:56.364Z,79.56
2023-04-13T00:29:22.901Z,78.81
2023-04-13T00:31:49.742Z,78.60
2023-04-13T00:34:16.522Z,79.08
2023-04-13T00:36:43.843Z,79.41
2023-04-13T00:39:10.643Z,79.45
2023-04-13T00:41:37.779Z,79.72
2023-04-13T00:44:09.053Z,80.33
2023-04-13T00:46:36.075Z,81.23
2023-04-13T00:49:03.481Z,81.57
2023-04-13T00:51:30.444Z,81.43
2023-04-13T00:53:59.546Z,81.73
2023-04-13T00:56:27.472Z,81.94
2023-04-13T00:58:56.533Z,82.81
2023-04-13T01:01:24.020Z,83.37
2023-04-13T01:03:53.517Z,83.74
2023-04-13T01:06:42.014Z,83.85
2023-04-13T01:09:16.805Z,84.07
2023-04-13T01:11:57.825Z,83.71
2023-04-13T01:14:37.760Z,83.66
2023-04-13T01:17:24.421Z,83.88
2023-04-13T01:20:01.669Z,84.43
2023-04-13T01:22:35.819Z,84.83
2023-04-13T01:25:40.394Z,85.08
2023-04-13T01:32:15.788Z,86.49
2023-04-13T01:34:45.745Z,86.62
2023-04-13T01:37:12.785Z,86.76
2023-04-13T01:39:40.218Z,87.14
2023-04-13T01:42:36.664Z,87.59
2023-04-13T01:45:06.201Z,87.65
2023-04-13T01:47:36.309Z,87.80
2023-04-13T01:50:25.880Z,87.98
2023-04-13T01:53:31.548Z,88.04
2023-04-13T01:56:01.064Z,87.73
2023-04-13T01:58:28.561Z,87.74
2023-04-13T02:01:00.327Z,87.51
2023-04-13T02:03:27.151Z,86.48
2023-04-13T02:05:54.498Z,86.42
2023-04-13T02:08:21.433Z,86.56
2023-04-13T02:10:48.968Z,86.13
2023-04-13T02:13:15.975Z,86.38
2023-04-13T02:15:42.971Z,85.94
2023-04-13T02:18:10.664Z,86.04
2023-04-13T02:20:45.352Z,85.89
2023-04-13T02:23:15.196Z,85.71
2023-04-13T02:25:47.692Z,85.95
2023-04-13T02:28:18.017Z,85.95
2023-04-13T02:30:47.199Z,85.62
2023-04-13T02:33:14.059Z,85.80
2023-04-13T02:35:41.315Z,85.57
2023-04-13T02:38:09.764Z,85.77
2023-04-13T02:40:38.781Z,85.68
2023-04-13T02:43:06.922Z,85.83
2023-04-13T02:45:37.426Z,86.02
2023-04-13T02:48:06.970Z,85.68
2023-04-13T02:50:34.093Z,85.42
2023-04-13T02:53:07.906Z,85.22
2023-04-13T02:55:37.063Z,85.43
2023-04-13T02:58:09.477Z,85.87
2023-04-13T03:00:37.528Z,86.42
2023-04-13T03:03:10.174Z,86.33
2023-04-13T03:05:43.364Z,85.87
2023-04-13T03:08:14.513Z,85.51
2023-04-13T03:10:54.374Z,85.81
2023-04-13T03:13:22.228Z,85.87
2023-04-13T03:15:53.059Z,85.81
2023-04-13T03:18:20.894Z,85.88
2023-04-13T03:20:47.751Z,85.56
2023-04-13T03:23:15.089Z,85.67
2023-04-13T03:25:42.664Z,85.71
2023-04-13T03:28:09.672Z,85.62
2023-04-13T03:30:41.484Z,85.56
2023-04-13T03:33:08.267Z,85.91
2023-04-13T03:35:37.204Z,85.76
2023-04-13T03:38:07.509Z,85.83
2023-04-13T03:40:40.413Z,86.16
2023-04-13T03:43:07.239Z,85.99
2023-04-13T03:45:37.832Z,86.15
2023-04-13T03:48:09.566Z,86.49
2023-04-13T03:50:36.293Z,86.62
2023-04-13T03:53:04.772Z,86.84
2023-04-13T03:55:32.264Z,87.23
2023-04-13T03:58:05.007Z,87.71
2023-04-13T04:00:31.891Z,88.10
2023-04-13T04:03:11.485Z,88.48
2023-04-13T04:05:54.417Z,88.62
2023-04-13T04:08:21.367Z,88.60
2023-04-13T04:10:49.112Z,88.70
2023-04-13T04:13:17.364Z,88.26
2023-04-13T04:15:48.579Z,87.98
2023-04-13T04:18:16.402Z,87.69
2023-04-13T04:20:43.556Z,87.32
2023-04-13T04:23:12.711Z,87.18
2023-04-13T04:26:00.267Z,86.67
2023-04-13T04:28:38.719Z,86.45
2023-04-13T04:31:12.034Z,85.88
2023-04-13T04:33:42.945Z,85.28
2023-04-13T04:36:16.796Z,85.17
2023-04-13T04:39:02.459Z,84.54
2023-04-13T04:41:37.349Z,83.67
2023-04-13T04:44:07.799Z,84.16
2023-04-13T04:46:41.821Z,84.01
2023-04-13T04:49:13.135Z,84.79
2023-04-13T04:51:40.772Z,84.52
2023-04-13T04:54:08.386Z,84.20
2023-04-13T04:56:35.898Z,84.57
2023-04-13T04:59:02.729Z,85.55
2023-04-13T05:01:40.557Z,85.59
2023-04-13T05:04:12.362Z,85.98
2023-04-13T05:06:41.619Z,85.35
2023-04-13T05:09:11.848Z,85.59
2023-04-13T05:11:43.718Z,85.82
2023-04-13T05:14:11.844Z,86.39
2023-04-13T05:16:39.427Z,86.87
2023-04-13T05:22:57.327Z,87.53
2023-04-13T05:25:26.176Z,88.05
2023-04-13T05:27:54.230Z,87.77
2023-04-13T05:30:22.096Z,87.37
2023-04-13T05:32:48.849Z,87.84
2023-04-13T05:35:16.047Z,87.37
2023-04-13T05:37:44.634Z,88.08
2023-04-13T05:40:18.606Z,87.94
2023-04-13T05:42:45.514Z,87.97
2023-04-13T05:45:17.282Z,88.34
2023-04-13T05:48:04.902Z,88.15
2023-04-13T05:50:32.147Z,88.27
2023-04-13T05:52:59.070Z,88.08
2023-04-13T05:55:31.022Z,88.15
2023-04-13T05:58:03.933Z,88.60
2023-04-13T06:00:31.149Z,88.63
2023-04-13T06:03:04.108Z,89.01
2023-04-13T06:05:33.135Z,89.33
2023-04-13T06:07:59.947Z,89.37
2023-04-13T06:10:26.920Z,89.79
2023-04-13T06:12:55.541Z,89.91
2023-04-13T06:15:22.439Z,89.99
2023-04-13T06:17:53.425Z,89.63
2023-04-13T06:20:21.633Z,89.56
2023-04-13T06:22:49.156Z,89.14
2023-04-13T06:25:18.821Z,89.01
2023-04-13T06:27:49.973Z,89.24
2023-04-13T06:30:19.020Z,89.56
2023-04-13T06:32:47.425Z,89.64
2023-04-13T06:35:17.528Z,89.98
2023-04-13T06:37:47.974Z,88.90
2023-04-13T06:40:21.190Z,88.74
2023-04-13T06:42:57.813Z,89.33
2023-04-13T06:45:37.317Z,89.54
2023-04-13T06:48:08.670Z,88.97
2023-04-13T06:50:37.771Z,88.96
2023-04-13T06:53:06.738Z,88.82
2023-04-13T06:55:34.325Z,88.68
2023-04-13T06:58:01.380Z,88.47
2023-04-13T07:00:30.408Z,87.97
2023-04-13T07:02:59.556Z,87.92
2023-04-13T07:05:26.868Z,87.44
2023-04-13T07:07:57.286Z,86.36
2023-04-13T07:10:24.428Z,85.35
2023-04-13T07:12:52.758Z,85.52
2023-04-13T07:15:22.306Z,85.17
2023-04-13T07:17:49.709Z,84.95
2023-04-13T07:20:17.683Z,84.50
2023-04-13T07:22:46.978Z,83.11
2023-04-13T07:25:13.705Z,82.12
2023-04-13T07:27:40.543Z,82.37
2023-04-13T07:30:10.755Z,82.01
2023-04-13T07:32:42.424Z,81.70
2023-04-13T07:35:10.038Z,81.50
2023-04-13T07:37:38.741Z,80.63
2023-04-13T07:40:08.474Z,80.21
2023-04-13T07:42:36.215Z,79.44
2023-04-13T07:45:03.180Z,79.15
2023-04-13T07:47:31.497Z,80.11
2023-04-13T07:50:06.419Z,79.78
2023-04-13T07:52:35.068Z,79.83
2023-04-13T07:55:03.476Z,79.76
2023-04-13T07:57:34.156Z,80.21
2023-04-13T08:00:06.093Z,80.11
2023-04-13T08:02:40.833Z,79.13
2023-04-13T08:05:12.529Z,79.46
2023-04-13T08:07:40.053Z,79.28
2023-04-13T08:10:08.328Z,78.95
2023-04-13T08:12:35.397Z,77.45
2023-04-13T08:15:02.428Z,76.60
2023-04-13T08:17:29.637Z,77.45
2023-04-13T08:19:57.046Z,76.31
2023-04-13T08:22:26.632Z,76.50
2023-04-13T08:24:54.754Z,76.39
2023-04-13T08:27:21.732Z,76.91
2023-04-13T08:29:55.644Z,75.60
2023-04-13T08:32:22.637Z,75.85
2023-04-13T08:34:51.469Z,74.61
2023-04-13T08:37:18.246Z,74.09
2023-04-13T08:39:48.385Z,73.61
2023-04-13T08:42:18.817Z,73.40
2023-04-13T08:44:46.664Z,72.69
2023-04-13T08:47:13.698Z,72.64
2023-04-13T08:49:42.961Z,71.55
2023-04-13T08:52:16.920Z,72.70
2023-04-13T08:54:47.770Z,73.84
2023-04-13T08:57:29.848Z,73.28
2023-04-13T08:59:58.989Z,71.32
2023-04-13T09:02:34.156Z,71.65
2023-04-13T09:05:15.940Z,71.98
2023-04-13T09:07:53.871Z,71.00
2023-04-13T09:10:28.585Z,69.92
2023-04-13T09:12:56.611Z,69.67
2023-04-13T09:15:26.437Z,71.02
2023-04-13T09:18:12.735Z,69.15
2023-04-13T09:20:58.441Z,68.83
2023-04-13T09:23:25.605Z,70.02
2023-04-13T09:26:08.732Z,69.34
2023-04-13T09:28:45.496Z,68.35
2023-04-13T09:31:13.740Z,67.27
2023-04-13T09:33:46.131Z,67.84
2023-04-13T09:36:14.249Z,66.64
2023-04-13T09:38:43.930Z,66.58
2023-04-13T09:41:10.794Z,65.86
2023-04-13T09:43:38.916Z,66.67
2023-04-13T09:46:13.494Z,66.85
2023-04-13T09:48:41.230Z,65.53
2023-04-13T09:51:09.843Z,65.21
2023-04-13T09:53:46.543Z,65.73
2023-04-13T09:56:14.074Z,66.63
2023-04-13T09:58:45.707Z,67.23
2023-04-13T10:01:15.217Z,66.70
2023-04-13T10:03:43.135Z,65.19
2023-04-13T10:06:09.971Z,65.40
2023-04-13T10:08:42.725Z,64.86
2023-04-13T10:11:16.804Z,64.50
2023-04-13T10:14:07.424Z,64.65
2023-04-13T10:16:43.325Z,65.85
2023-04-13T10:19:12.825Z,65.79
2023-04-13T10:21:43.822Z,64.20
2023-04-13T10:24:12.715Z,65.17
2023-04-13T10:26:41.468Z,65.13
2023-04-13T10:29:10.338Z,64.56
2023-04-13T10:31:38.167Z,64.10
2023-04-13T10:34:06.479Z,64.26
2023-04-13T10:36:42.198Z,64.03
2023-04-13T10:39:10.874Z,63.89
2023-04-13T10:41:38.024Z,64.92
2023-04-13T10:44:08.761Z,63.62
2023-04-13T10:46:36.050Z,63.89
2023-04-13T10:49:04.727Z,63.57
2023-04-13T10:51:45.323Z,62.57
2023-04-13T10:54:14.064Z,62.53
2023-04-13T10:56:40.855Z,62.78
2023-04-13T10:59:08.239Z,63.13
2023-04-13T11:01:36.014Z,63.51
2023-04-13T11:04:08.904Z,62.76
2023-04-13T11:06:39.560Z,62.51
2023-04-13T11:09:12.956Z,63.59
2023-04-13T11:11:42.031Z,62.74
2023-04-13T11:14:08.749Z,62.67
2023-04-13T11:16:58.515Z,64.13
2023-04-13T11:19:25.701Z,62.20
2023-04-13T11:21:58.274Z,63.02
2023-04-13T11:24:29.823Z,63.30
2023-04-13T11:26:57.782Z,62.06
2023-04-13T11:29:24.490Z,61.52
2023-04-13T11:31:52.053Z,62.61
2023-04-13T11:34:26.591Z,61.51
2023-04-13T11:37:05.220Z,62.13
2023-04-13T11:39:35.294Z,62.42
2023-04-13T11:42:07.040Z,63.14
2023-04-13T11:44:35.268Z,63.97
2023-04-13T11:47:03.142Z,63.76
2023-04-13T11:49:31.994Z,64.46
2023-04-13T11:52:02.951Z,64.97
2023-04-13T11:54:30.607Z,65.01
2023-04-13T11:56:57.777Z,64.00
2023-04-13T11:59:25.327Z,62.39
2023-04-13T12:02:01.530Z,62.92
2023-04-13T12:04:38.491Z,62.72
2023-04-13T12:07:16.627Z,63.16
2023-04-13T12:09:56.088Z,62.53
2023-04-13T12:15:15.432Z,62.80
2023-04-13T12:17:58.214Z,61.85
2023-04-13T12:20:39.870Z,61.30
2023-04-13T12:23:23.160Z,62.63
2023-04-13T12:25:58.093Z,62.85
2023-04-13T12:28:34.925Z,59.95
2023-04-13T12:31:07.572Z,60.67
2023-04-13T12:33:34.752Z,60.02
2023-04-13T12:36:02.027Z,61.96
2023-04-13T12:38:28.924Z,61.10
2023-04-13T12:41:01.707Z,61.62
2023-04-13T12:43:28.917Z,60.75
2023-04-13T12:45:58.322Z,60.14
2023-04-13T12:48:25.260Z,59.69
2023-04-13T12:50:51.996Z,60.93
2023-04-13T12:53:21.777Z,57.96
2023-04-13T12:55:48.683Z,58.03
2023-04-13T12:58:15.410Z,56.98
2023-04-13T13:00:42.279Z,55.80
2023-04-13T13:03:15.002Z,56.08
2023-04-13T13:05:42.409Z,58.14
2023-04-13T13:08:09.522Z,58.23
2023-04-13T13:10:41.902Z,59.22
2023-04-13T13:13:08.705Z,59.83
2023-04-13T13:15:35.456Z,58.25
2023-04-13T13:18:06.717Z,57.89
2023-04-13T13:20:33.566Z,59.52
2023-04-13T13:23:00.497Z,59.54
2023-04-13T13:25:27.300Z,59.57
2023-04-13T13:28:13.496Z,56.74
2023-04-13T13:30:42.400Z,56.88
2023-04-13T13:33:09.208Z,56.70
2023-04-13T13:35:36.370Z,59.17
2023-04-13T13:38:03.451Z,58.27
2023-04-13T13:40:30.523Z,58.95
2023-04-13T13:42:57.486Z,59.07
2023-04-13T13:45:24.532Z,57.29
2023-04-13T13:47:58.379Z,56.41
2023-04-13T13:50:48.882Z,57.54
2023-04-13T13:53:15.766Z,57.87
2023-04-13T13:55:42.829Z,59.01
2023-04-13T13:58:09.794Z,59.12
2023-04-13T14:00:36.800Z,58.97
2023-04-13T14:03:03.936Z,58.70
2023-04-13T14:05:30.837Z,59.40
2023-04-13T14:07:57.589Z,59.61
2023-04-13T14:10:26.906Z,60.04
2023-04-13T14:12:55.775Z,60.30
2023-04-13T14:15:22.608Z,60.42
2023-04-13T14:18:02.428Z,58.81
2023-04-13T14:20:39.074Z,64.93
2023-04-13T14:23:06.693Z,66.58
2023-04-13T14:25:33.459Z,67.77
2023-04-13T14:28:00.718Z,68.05
2023-04-13T14:30:28.482Z,68.52
2023-04-13T14:32:56.284Z,68.09
2023-04-13T14:35:23.647Z,68.64
2023-04-13T14:37:50.413Z,66.66
2023-04-13T14:40:21.183Z,66.80
2023-04-13T14:42:50.880Z,66.65
2023-04-13T14:45:17.884Z,67.44
2023-04-13T14:47:44.746Z,69.11
2023-04-13T14:50:12.160Z,66.45
2023-04-13T14:52:39.809Z,65.92
2023-04-13T14:55:06.952Z,65.89
2023-04-13T14:57:33.744Z,66.97
2023-04-13T15:00:00.644Z,67.68
2023-04-13T15:02:28.752Z,68.37
2023-04-13T15:04:56.064Z,65.96
2023-04-13T15:07:30.027Z,66.24
2023-04-13T15:09:58.859Z,63.24
2023-04-13T15:12:25.784Z,63.38
2023-04-13T15:14:52.742Z,63.91
2023-04-13T15:17:19.472Z,63.69
2023-04-13T15:19:46.309Z,63.09
2023-04-13T15:22:13.150Z,60.01
2023-04-13T15:24:39.903Z,58.80
2023-04-13T15:27:06.676Z,60.49
2023-04-13T15:29:33.552Z,59.90
2023-04-13T15:32:00.568Z,60.95
2023-04-13T15:34:28.009Z,58.77
2023-04-13T15:36:57.073Z,58.80
2023-04-13T15:39:23.864Z,59.53
2023-04-13T15:41:52.737Z,58.50
2023-04-13T15:44:19.501Z,58.81
2023-04-13T15:46:48.080Z,57.91
2023-04-13T15:49:15.055Z,57.41
2023-04-13T15:51:41.834Z,58.30
2023-04-13T15:54:08.584Z,59.05
2023-04-13T15:56:35.530Z,56.96
2023-04-13T15:59:02.679Z,57.50
2023-04-13T16:01:44.492Z,57.59
2023-04-13T16:04:11.893Z,60.52
2023-04-13T16:06:38.708Z,62.34
2023-04-13T16:09:05.685Z,62.62
2023-04-13T16:11:32.531Z,60.47
2023-04-13T16:14:07.240Z,58.87
2023-04-13T16:16:53.487Z,61.23
2023-04-13T16:19:21.120Z,55.85
2023-04-13T16:21:50.837Z,52.45
2023-04-13T16:24:21.196Z,53.87
2023-04-13T16:26:48.054Z,52.29
2023-04-13T16:29:14.799Z,52.08
2023-04-13T16:31:44.982Z,51.76
2023-04-13T16:34:25.528Z,52.25
2023-04-13T16:36:53.671Z,52.58
2023-04-13T16:39:22.058Z,52.67
2023-04-13T16:41:49.080Z,53.12
2023-04-13T16:44:16.160Z,53.70
2023-04-13T16:46:43.163Z,54.97
2023-04-13T16:49:10.389Z,53.20
2023-04-13T16:51:37.283Z,52.90
2023-04-13T16:54:04.560Z,52.34
2023-04-13T16:56:31.570Z,53.64
2023-04-13T16:58:58.887Z,53.35
2023-04-13T17:01:26.442Z,54.33
2023-04-13T17:03:53.895Z,53.92
2023-04-13T17:06:21.460Z,53.99
2023-04-13T17:08:48.719Z,53.06
2023-04-13T17:11:15.692Z,53.25
2023-04-13T17:13:42.630Z,53.95
2023-04-13T17:16:10.031Z,55.33
2023-04-13T17:18:36.922Z,53.06
2023-04-13T17:21:04.018Z,52.05
2023-04-13T17:23:31.470Z,52.35
2023-04-13T17:25:58.309Z,50.58
2023-04-13T17:28:25.456Z,50.26
2023-04-13T17:30:52.287Z,50.81
2023-04-13T17:33:19.204Z,51.33
2023-04-13T17:35:46.455Z,52.62
2023-04-13T17:38:13.337Z,53.12
2023-04-13T17:40:40.295Z,51.74
2023-04-13T17:43:08.787Z,52.25
2023-04-13T17:45:37.230Z,51.80
2023-04-13T17:48:05.966Z,50.85
2023-04-13T17:50:33.061Z,51.75
2023-04-13T17:53:04.459Z,50.53
2023-04-13T17:55:31.810Z,50.15
2023-04-13T17:57:58.590Z,50.53
2023-04-13T18:00:27.793Z,59.20
2023-04-13T18:02:55.341Z,60.52
2023-04-13T18:05:22.386Z,60.89
2023-04-13T18:07:49.528Z,62.08
2023-04-13T18:10:16.408Z,62.91
2023-04-13T18:12:43.198Z,64.56
2023-04-13T18:15:10.575Z,64.19
2023-04-13T18:17:38.586Z,65.02
2023-04-13T18:20:06.379Z,65.18
2023-04-13T18:22:33.230Z,65.47
2023-04-13T18:25:00.412Z,64.04
2023-04-13T18:27:27.874Z,63.11
2023-04-13T18:29:55.449Z,62.10
2023-04-13T18:32:23.020Z,61.53
2023-04-13T18:34:49.984Z,61.59
2023-04-13T18:37:16.912Z,62.07
2023-04-13T18:39:43.825Z,61.44
2023-04-13T18:42:10.822Z,62.75
2023-04-13T18:44:37.588Z,64.59
2023-04-13T18:47:04.914Z,65.22
2023-04-13T18:49:31.715Z,64.18
2023-04-13T18:51:58.629Z,58.34
2023-04-13T18:54:25.653Z,54.89
2023-04-13T18:56:52.491Z,53.50
2023-04-13T18:59:19.222Z,54.56
2023-04-13T19:01:46.716Z,52.48
2023-04-13T19:04:13.949Z,52.84
2023-04-13T19:06:41.197Z,51.74
2023-04-13T19:09:08.370Z,53.04
2023-04-13T19:11:46.986Z,51.99
2023-04-13T19:14:14.025Z,53.16
2023-04-13T19:16:41.726Z,54.55
2023-04-13T19:19:11.234Z,55.70
2023-04-13T19:21:38.231Z,55.67
2023-04-13T19:24:06.667Z,54.15
2023-04-13T19:26:33.555Z,52.08
2023-04-13T19:29:01.071Z,49.75
2023-04-13T19:31:28.064Z,47.52
2023-04-13T19:33:55.142Z,48.13
2023-04-13T19:36:24.205Z,47.85
2023-04-13T19:38:52.433Z,48.03
2023-04-13T19:41:19.303Z,47.40
2023-04-13T19:43:47.943Z,46.69
2023-04-13T19:46:14.690Z,48.16
2023-04-13T19:48:42.341Z,48.82
2023-04-13T19:51:09.341Z,49.08
2023-04-13T19:53:38.241Z,48.62
2023-04-13T19:56:05.326Z,49.29
2023-04-13T19:58:32.406Z,48.67
2023-04-13T20:00:59.546Z,48.63
2023-04-13T20:03:26.872Z,48.62
2023-04-13T20:05:53.988Z,48.74
2023-04-13T20:08:20.865Z,49.32
2023-04-13T20:10:47.720Z,48.80
2023-04-13T20:13:14.741Z,48.99
2023-04-13T20:15:41.810Z,49.07
2023-04-13T20:18:09.242Z,48.89
2023-04-13T20:20:37.634Z,49.26
2023-04-13T20:23:04.552Z,49.08
2023-04-13T20:25:31.498Z,50.88
2023-04-13T20:27:58.377Z,51.41
2023-04-13T20:30:26.166Z,52.92
2023-04-13T20:32:53.084Z,53.65
2023-04-13T20:35:20.456Z,54.18
2023-04-13T20:37:47.510Z,53.55
2023-04-13T20:40:14.753Z,55.12
2023-04-13T20:42:42.284Z,56.34
2023-04-13T20:45:10.989Z,54.97
2023-04-13T20:47:42.375Z,55.87
2023-04-13T20:50:11.959Z,53.23
2023-04-13T20:52:42.091Z,52.44
2023-04-13T20:55:11.773Z,52.37
2023-04-13T20:57:42.278Z,52.58
2023-04-13T21:00:15.515Z,51.97
2023-04-13T21:02:43.678Z,51.30
2023-04-13T21:05:10.593Z,51.36
2023-04-13T21:07:38.189Z,51.62
2023-04-13T21:10:05.397Z,49.84
2023-04-13T21:12:32.228Z,50.00
2023-04-13T21:14:58.969Z,49.97
2023-04-13T21:17:26.132Z,50.01
2023-04-13T21:19:52.976Z,51.14
2023-04-13T21:22:19.829Z,50.16
2023-04-13T21:24:46.823Z,50.74
2023-04-13T21:27:14.169Z,50.37
2023-04-13T21:29:40.950Z,51.13
2023-04-13T21:32:07.743Z,51.21
2023-04-13T21:34:34.474Z,51.54
2023-04-13T21:37:03.198Z,51.38
2023-04-13T21:39:30.637Z,51.68
2023-04-13T21:41:57.626Z,51.81
2023-04-13T21:44:29.802Z,52.16
2023-04-13T21:46:57.699Z,52.53
2023-04-13T21:49:24.518Z,53.55
2023-04-13T21:51:51.541Z,54.30
2023-04-13T21:54:18.235Z,54.86
2023-04-13T21:56:45.053Z,55.09
2023-04-13T21:59:11.756Z,55.46
2023-04-13T22:01:38.579Z,55.03
2023-04-13T22:04:05.531Z,55.76
2023-04-13T22:06:32.733Z,55.51
2023-04-13T22:08:59.700Z,55.15
2023-04-13T22:11:26.705Z,56.52
2023-04-13T22:13:53.435Z,56.47
2023-04-13T22:16:20.261Z,55.72
2023-04-13T22:18:47.256Z,56.29
2023-04-13T22:21:13.994Z,56.49
2023-04-13T22:23:40.965Z,57.54
2023-04-13T22:26:07.747Z,56.89
2023-04-13T22:28:34.612Z,57.34
2023-04-13T22:31:08.896Z,57.49
2023-04-13T22:33:36.297Z,57.86
2023-04-13T22:36:06.971Z,58.31
2023-04-13T22:38:33.777Z,58.36
2023-04-13T22:41:06.390Z,58.22
2023-04-13T22:43:33.160Z,59.23
2023-04-13T22:46:00.724Z,58.92
2023-04-13T22:48:30.067Z,59.39
2023-04-13T22:51:00.787Z,59.85
2023-04-13T22:53:27.776Z,58.86
2023-04-13T22:55:54.472Z,59.47
2023-04-13T22:58:21.344Z,59.91
2023-04-13T23:00:48.057Z,59.60
2023-04-13T23:03:15.021Z,59.95
2023-04-13T23:05:41.834Z,59.61
2023-04-13T23:08:08.697Z,59.21
2023-04-13T23:10:35.610Z,59.34
2023-04-13T23:13:03.107Z,60.47
2023-04-13T23:15:29.822Z,60.07
2023-04-13T23:17:56.688Z,60.30
2023-04-13T23:20:23.917Z,59.37
2023-04-13T23:22:50.683Z,60.17
2023-04-13T23:25:17.597Z,59.81
2023-04-13T23:27:44.411Z,60.83
2023-04-13T23:30:11.605Z,59.66
2023-04-13T23:32:38.449Z,60.34
2023-04-13T23:35:06.068Z,60.92
2023-04-13T23:37:32.999Z,60.46
2023-04-13T23:40:00.054Z,60.46
2023-04-13T23:42:28.103Z,60.38
2023-04-13T23:44:54.828Z,60.32
2023-04-13T23:47:22.408Z,60.84
2023-04-13T23:49:50.898Z,60.48
2023-04-13T23:52:17.750Z,60.63
2023-04-13T23:54:44.579Z,61.45
2023-04-13T23:57:12.753Z,61.22
2023-04-13T23:59:39.743Z,61.60
